createdAt,value
2017-07-12T00:00:36.322Z,1005.9
2017-07-12T00:03:08.062Z,1005.9
2017-07-12T00:05:39.753Z,1005.9
2017-07-12T00:08:11.483Z,1005.8
2017-07-12T00:10:43.179Z,1005.7
2017-07-12T00:13:14.908Z,1005.7
2017-07-12T00:15:46.643Z,1005.7
2017-07-12T00:18:18.381Z,1005.7
2017-07-12T00:20:50.066Z,1005.6
2017-07-12T00:23:21.795Z,1005.7
2017-07-12T00:25:53.501Z,1005.7
2017-07-12T00:28:25.255Z,1005.7
2017-07-12T00:30:56.988Z,1005.6
2017-07-12T00:33:28.738Z,1005.6
2017-07-12T00:36:00.444Z,1005.6
2017-07-12T00:38:32.191Z,1005.5
2017-07-12T00:41:03.910Z,1005.4
2017-07-12T00:43:35.691Z,1005.3
2017-07-12T00:46:07.403Z,1005.3
2017-07-12T00:48:39.144Z,1005.3
2017-07-12T00:51:10.864Z,1005.3
2017-07-12T00:53:42.605Z,1005.2
2017-07-12T00:56:14.314Z,1005.1
2017-07-12T00:58:46.066Z,1005.1
2017-07-12T01:01:17.796Z,1005.1
2017-07-12T01:03:49.572Z,1004.9
2017-07-12T01:06:21.286Z,1005.0
2017-07-12T01:08:53.066Z,1005.1
2017-07-12T01:11:24.755Z,1005.1
2017-07-12T01:13:56.524Z,1004.9
2017-07-12T01:16:28.220Z,1005.0
2017-07-12T01:18:59.952Z,1005.0
2017-07-12T01:21:31.667Z,1005.0
2017-07-12T01:24:03.393Z,1005.0
2017-07-12T01:26:35.120Z,1005.0
2017-07-12T01:29:06.881Z,1005.0
2017-07-12T01:31:38.615Z,1005.0
2017-07-12T01:34:10.378Z,1004.9
2017-07-12T01:36:42.117Z,1004.9
2017-07-12T01:39:13.873Z,1004.9
2017-07-12T01:41:45.572Z,1004.9
2017-07-12T01:44:17.304Z,1004.9
2017-07-12T01:46:49.005Z,1004.8
2017-07-12T01:49:20.725Z,1004.9
2017-07-12T01:51:52.414Z,1004.8
2017-07-12T01:54:24.138Z,1004.7
2017-07-12T01:56:55.866Z,1004.7
2017-07-12T01:59:27.615Z,1004.7
2017-07-12T02:01:59.363Z,1004.7
2017-07-12T02:04:31.130Z,1004.7
2017-07-12T02:07:02.832Z,1004.7
2017-07-12T02:09:34.576Z,1004.6
2017-07-12T02:12:06.271Z,1004.5
2017-07-12T02:14:37.995Z,1004.5
2017-07-12T02:17:09.704Z,1004.3
2017-07-12T02:19:41.450Z,1004.4
2017-07-12T02:22:13.137Z,1004.3
2017-07-12T02:24:44.885Z,1004.2
2017-07-12T02:27:16.590Z,1004.2
2017-07-12T02:29:48.350Z,1004.2
2017-07-12T02:32:20.103Z,1004.2
2017-07-12T02:34:51.874Z,1004.2
2017-07-12T02:37:23.593Z,1004.2
2017-07-12T02:39:55.360Z,1004.1
2017-07-12T02:42:27.100Z,1004.1
2017-07-12T02:44:58.850Z,1004.1
2017-07-12T02:47:30.572Z,1004.0
2017-07-12T02:50:02.337Z,1004.0
2017-07-12T02:52:34.050Z,1003.9
2017-07-12T02:55:05.828Z,1003.9
2017-07-12T02:57:37.553Z,1003.9
2017-07-12T03:00:09.292Z,1003.9
2017-07-12T03:02:41.070Z,1004.0
2017-07-12T03:05:12.832Z,1004.0
2017-07-12T03:07:44.574Z,1003.9
2017-07-12T03:10:16.342Z,1003.9
2017-07-12T03:12:48.060Z,1003.9
2017-07-12T03:15:19.813Z,1003.9
2017-07-12T03:17:51.572Z,1003.9
2017-07-12T03:20:23.330Z,1003.9
2017-07-12T03:22:55.045Z,1003.8
2017-07-12T03:25:26.831Z,1003.8
2017-07-12T03:27:58.561Z,1003.7
2017-07-12T03:30:30.309Z,1003.8
2017-07-12T03:33:02.042Z,1003.8
2017-07-12T03:35:33.790Z,1003.7
2017-07-12T03:38:05.497Z,1003.6
2017-07-12T03:40:37.311Z,1003.6
2017-07-12T03:43:09.053Z,1003.6
2017-07-12T03:45:40.805Z,1003.5
2017-07-12T03:48:12.523Z,1003.5
2017-07-12T03:50:44.286Z,1003.4
2017-07-12T03:53:16.003Z,1003.4
2017-07-12T03:55:47.775Z,1003.3
2017-07-12T03:58:19.492Z,1003.3
2017-07-12T04:00:51.249Z,1003.3
2017-07-12T04:03:22.959Z,1003.2
2017-07-12T04:05:54.732Z,1003.3
2017-07-12T04:08:26.495Z,1003.2
2017-07-12T04:10:58.232Z,1003.2
2017-07-12T04:13:29.939Z,1003.2
2017-07-12T04:16:01.700Z,1003.2
2017-07-12T04:18:33.408Z,1003.1
2017-07-12T04:21:05.159Z,1003.2
2017-07-12T04:23:36.929Z,1003.1
2017-07-12T04:26:08.696Z,1003.1
2017-07-12T04:28:40.404Z,1003.0
2017-07-12T04:31:12.191Z,1003.0
2017-07-12T04:33:43.903Z,1002.9
2017-07-12T04:36:15.675Z,1002.8
2017-07-12T04:38:47.405Z,1002.8
2017-07-12T04:41:19.164Z,1002.7
2017-07-12T04:43:50.863Z,1002.7
2017-07-12T04:46:22.667Z,1002.8
2017-07-12T04:48:54.389Z,1002.8
2017-07-12T04:51:26.149Z,1002.7
2017-07-12T04:53:57.873Z,1002.7
2017-07-12T04:56:29.609Z,1002.7
2017-07-12T04:59:01.332Z,1002.7
2017-07-12T05:01:33.093Z,1002.8
2017-07-12T05:04:04.814Z,1002.8
2017-07-12T05:06:36.583Z,1002.8
2017-07-12T05:09:08.323Z,1002.8
2017-07-12T05:11:40.103Z,1002.8
2017-07-12T05:14:11.847Z,1002.8
2017-07-12T05:16:43.611Z,1002.7
2017-07-12T05:19:15.357Z,1002.7
2017-07-12T05:21:47.154Z,1002.7
2017-07-12T05:24:18.883Z,1002.7
2017-07-12T05:26:50.618Z,1002.7
2017-07-12T05:29:22.328Z,1002.7
2017-07-12T05:31:54.052Z,1002.7
2017-07-12T05:34:25.753Z,1002.7
2017-07-12T05:36:57.581Z,1002.7
2017-07-12T05:39:29.280Z,1002.6
2017-07-12T05:42:01.036Z,1002.7
2017-07-12T05:44:32.761Z,1002.7
2017-07-12T05:47:04.508Z,1002.7
2017-07-12T05:49:36.226Z,1002.6
2017-07-12T05:52:07.993Z,1002.6
2017-07-12T05:54:39.789Z,1002.6
2017-07-12T05:57:11.509Z,1002.6
2017-07-12T05:59:43.259Z,1002.6
2017-07-12T06:02:15.026Z,1002.6
2017-07-12T06:04:46.761Z,1002.5
2017-07-12T06:07:18.553Z,1002.5
2017-07-12T06:09:50.343Z,1002.4
2017-07-12T06:12:22.074Z,1002.4
2017-07-12T06:14:53.770Z,1002.4
2017-07-12T06:17:25.515Z,1002.4
2017-07-12T06:19:57.221Z,1002.4
2017-07-12T06:22:28.947Z,1002.4
2017-07-12T06:25:00.637Z,1002.4
2017-07-12T06:27:32.458Z,1002.4
2017-07-12T06:30:04.235Z,1002.3
2017-07-12T06:32:36.036Z,1002.3
2017-07-12T06:35:07.776Z,1002.2
2017-07-12T06:37:39.542Z,1002.2
2017-07-12T06:40:11.278Z,1002.1
2017-07-12T06:42:43.069Z,1002.2
2017-07-12T06:45:14.869Z,1002.2
2017-07-12T06:47:46.716Z,1002.1
2017-07-12T06:50:18.438Z,1002.2
2017-07-12T06:52:50.230Z,1002.1
2017-07-12T06:55:21.962Z,1002.1
2017-07-12T06:57:53.731Z,1002.0
2017-07-12T07:00:25.471Z,1002.0
2017-07-12T07:02:57.247Z,1002.0
2017-07-12T07:05:28.982Z,1002.0
2017-07-12T07:08:00.743Z,1002.0
2017-07-12T07:10:32.494Z,1002.0
2017-07-12T07:13:04.260Z,1001.9
2017-07-12T07:15:35.981Z,1001.9
2017-07-12T07:18:07.749Z,1001.8
2017-07-12T07:20:39.482Z,1001.8
2017-07-12T07:23:11.249Z,1001.8
2017-07-12T07:25:42.991Z,1001.8
2017-07-12T07:28:14.734Z,1001.9
2017-07-12T07:30:46.465Z,1001.9
2017-07-12T07:33:18.264Z,1001.9
2017-07-12T07:35:49.972Z,1001.9
2017-07-12T07:38:21.741Z,1001.9
2017-07-12T07:40:53.522Z,1001.9
2017-07-12T07:43:25.355Z,1001.9
2017-07-12T07:45:57.104Z,1001.9
2017-07-12T07:48:28.888Z,1001.9
2017-07-12T07:51:00.625Z,1001.8
2017-07-12T07:53:32.562Z,1001.8
2017-07-12T07:56:04.313Z,1001.8
2017-07-12T07:58:36.044Z,1001.8
2017-07-12T08:01:07.733Z,1001.8
2017-07-12T08:03:39.467Z,1001.8
2017-07-12T08:06:11.180Z,1001.8
2017-07-12T08:08:42.934Z,1001.7
2017-07-12T08:11:14.635Z,1001.7
2017-07-12T08:13:46.400Z,1001.7
2017-07-12T08:16:18.135Z,1001.6
2017-07-12T08:18:49.912Z,1001.6
2017-07-12T08:21:21.622Z,1001.5
2017-07-12T08:23:53.383Z,1001.5
2017-07-12T08:26:25.131Z,1001.5
2017-07-12T08:28:56.921Z,1001.5
2017-07-12T08:31:28.645Z,1001.5
2017-07-12T08:34:00.393Z,1001.4
2017-07-12T08:36:32.122Z,1001.4
2017-07-12T08:39:03.905Z,1001.4
2017-07-12T08:41:35.639Z,1001.3
2017-07-12T08:44:07.377Z,1001.3
2017-07-12T08:46:39.099Z,1001.3
2017-07-12T08:49:10.881Z,1001.3
2017-07-12T08:51:42.611Z,1001.4
2017-07-12T08:54:14.379Z,1001.4
2017-07-12T08:56:46.142Z,1001.4
2017-07-12T08:59:17.947Z,1001.4
2017-07-12T09:01:49.687Z,1001.5
2017-07-12T09:04:21.445Z,1001.4
2017-07-12T09:06:53.162Z,1001.5
2017-07-12T09:09:24.940Z,1001.5
2017-07-12T09:11:56.666Z,1001.5
2017-07-12T09:14:28.401Z,1001.5
2017-07-12T09:17:00.105Z,1001.6
2017-07-12T09:19:31.840Z,1001.6
2017-07-12T09:22:03.533Z,1001.5
2017-07-12T15:35:27.629Z,1008.6
2017-07-12T15:37:59.357Z,1008.7
2017-07-12T15:40:31.163Z,1008.9
2017-07-12T15:43:03.449Z,1009.0
2017-07-12T15:45:35.912Z,1009.1
2017-07-12T15:48:09.313Z,1009.1
2017-07-12T15:50:41.078Z,1009.3
2017-07-12T15:53:14.195Z,1009.4
2017-07-12T15:55:45.985Z,1009.3
2017-07-12T15:58:17.846Z,1009.3
2017-07-12T16:00:49.632Z,1009.4
2017-07-12T16:03:22.449Z,1009.5
2017-07-12T16:05:55.208Z,1009.5
2017-07-12T16:08:27.089Z,1009.6
2017-07-12T16:10:59.401Z,1009.6
2017-07-12T16:13:31.171Z,1009.7
2017-07-12T16:16:02.973Z,1009.8
2017-07-12T16:18:34.699Z,1009.9
2017-07-12T16:21:06.493Z,1010.0
2017-07-12T16:23:38.329Z,1010.1
2017-07-12T16:26:10.123Z,1010.2
2017-07-12T16:28:41.892Z,1010.2
2017-07-12T16:31:13.743Z,1010.3
2017-07-12T16:33:45.815Z,1010.3
2017-07-12T16:36:17.624Z,1010.3
2017-07-12T16:38:49.383Z,1010.3
2017-07-12T16:41:21.168Z,1010.3
2017-07-12T16:43:52.949Z,1010.4
2017-07-12T16:46:24.696Z,1010.5
2017-07-12T16:48:56.484Z,1010.5
2017-07-12T16:51:28.263Z,1010.6
2017-07-12T16:54:00.011Z,1010.7
2017-07-12T16:56:31.818Z,1010.8
2017-07-12T16:59:03.562Z,1010.9
2017-07-12T17:01:35.437Z,1011.0
2017-07-12T17:04:07.174Z,1011.0
2017-07-12T17:06:38.987Z,1011.0
2017-07-12T17:09:14.467Z,1011.1
2017-07-12T17:11:46.581Z,1011.1
2017-07-12T17:14:18.307Z,1011.2
2017-07-12T17:16:55.168Z,1011.3
2017-07-12T17:19:28.863Z,1011.4
2017-07-12T17:22:05.532Z,1011.4
2017-07-12T17:24:39.288Z,1011.5
2017-07-12T17:27:11.105Z,1011.5
2017-07-12T17:29:44.154Z,1011.5
2017-07-12T17:32:17.422Z,1011.6
2017-07-12T17:34:49.223Z,1011.5
2017-07-12T17:37:21.739Z,1011.6
2017-07-12T17:39:53.514Z,1011.7
2017-07-12T17:42:25.300Z,1011.8
2017-07-12T17:44:57.052Z,1011.8
2017-07-12T17:47:28.872Z,1011.8
2017-07-12T17:50:00.618Z,1011.8
2017-07-12T17:52:32.413Z,1011.9
2017-07-12T17:55:04.164Z,1012.0
2017-07-12T17:57:35.927Z,1012.1
2017-07-12T18:00:16.783Z,1012.1
2017-07-12T18:02:48.885Z,1012.1
2017-07-12T18:05:20.598Z,1012.1
2017-07-12T18:07:53.859Z,1012.2
2017-07-12T18:10:27.009Z,1012.3
2017-07-12T18:13:00.121Z,1012.3
2017-07-12T18:15:32.917Z,1012.3
2017-07-12T18:18:05.874Z,1012.4
2017-07-12T18:20:38.420Z,1012.5
2017-07-12T18:23:10.351Z,1012.6
2017-07-12T18:25:42.257Z,1012.6
2017-07-12T18:28:14.027Z,1012.6
2017-07-12T18:30:45.833Z,1012.7
2017-07-12T18:33:17.611Z,1012.7
2017-07-12T18:35:49.369Z,1012.8
2017-07-12T18:38:21.192Z,1013.0
2017-07-12T18:40:52.950Z,1012.9
2017-07-12T18:43:24.751Z,1013.0
2017-07-12T18:45:56.503Z,1013.1
2017-07-12T18:48:28.299Z,1013.4
2017-07-12T18:51:00.051Z,1013.4
2017-07-12T18:53:31.926Z,1013.3
2017-07-12T18:56:03.705Z,1013.9
2017-07-12T18:58:35.543Z,1014.0
2017-07-12T19:01:07.347Z,1013.8
2017-07-12T19:03:39.136Z,1013.5
2017-07-12T19:06:10.903Z,1013.4
2017-07-12T19:08:42.753Z,1013.3
2017-07-12T19:11:14.513Z,1013.4
2017-07-12T19:13:46.361Z,1013.4
2017-07-12T19:16:18.093Z,1013.4
2017-07-12T19:18:49.965Z,1013.4
2017-07-12T19:21:21.721Z,1013.5
2017-07-12T19:23:53.484Z,1013.5
2017-07-12T19:26:25.230Z,1013.5
2017-07-12T19:28:56.980Z,1013.6
2017-07-12T19:31:28.685Z,1013.7
2017-07-12T19:34:00.452Z,1013.8
2017-07-12T19:36:40.555Z,1013.8
2017-07-12T19:39:14.440Z,1013.8
2017-07-12T19:41:46.176Z,1013.9
2017-07-12T19:44:17.947Z,1013.9
2017-07-12T19:46:49.684Z,1014.0
2017-07-12T19:49:21.543Z,1014.1
2017-07-12T19:51:53.555Z,1014.1
2017-07-12T19:54:25.675Z,1014.2
2017-07-12T19:56:57.588Z,1014.3
2017-07-12T19:59:29.374Z,1014.3
2017-07-12T20:02:01.117Z,1014.4
2017-07-12T20:04:32.876Z,1014.4
2017-07-12T20:07:04.602Z,1014.5
2017-07-12T20:09:36.363Z,1014.5
2017-07-12T20:12:08.115Z,1014.6
2017-07-12T20:14:39.927Z,1014.7
2017-07-12T20:17:11.643Z,1014.7
2017-07-12T20:19:43.503Z,1014.8
2017-07-12T20:22:15.260Z,1014.9
2017-07-12T20:24:47.091Z,1014.9
2017-07-12T20:27:18.820Z,1014.9
2017-07-12T20:29:50.609Z,1014.9
2017-07-12T20:32:22.389Z,1014.9
2017-07-12T20:34:54.142Z,1015.0
2017-07-12T20:37:26.016Z,1015.0
2017-07-12T20:39:57.771Z,1015.0
2017-07-12T20:42:29.516Z,1015.0
2017-07-12T20:45:01.317Z,1015.1
2017-07-12T20:47:33.055Z,1015.1
2017-07-12T20:50:04.822Z,1015.2
2017-07-12T20:52:36.527Z,1015.2
2017-07-12T20:55:09.589Z,1015.2
2017-07-12T20:57:41.411Z,1015.3
2017-07-12T21:00:13.475Z,1015.4
2017-07-12T21:02:45.809Z,1015.4
2017-07-12T21:05:17.909Z,1015.4
2017-07-12T21:07:50.263Z,1015.5
2017-07-12T21:10:22.042Z,1015.5
2017-07-12T21:12:53.751Z,1015.5
2017-07-12T21:15:25.634Z,1015.5
2017-07-12T21:17:57.350Z,1015.6
2017-07-12T21:20:29.090Z,1015.5
2017-07-12T21:23:02.000Z,1015.6
2017-07-12T21:25:33.784Z,1015.6
2017-07-12T21:28:08.748Z,1015.6
2017-07-12T21:30:40.464Z,1015.6
2017-07-12T21:33:13.650Z,1015.7
2017-07-12T21:35:46.833Z,1015.8
2017-07-12T21:38:18.572Z,1015.9
2017-07-12T21:40:50.475Z,1015.9
2017-07-12T21:43:22.207Z,1015.9
2017-07-12T21:45:55.249Z,1015.9
2017-07-12T21:48:28.163Z,1015.9
2017-07-12T21:50:59.979Z,1016.0
2017-07-12T21:53:31.705Z,1016.1
2017-07-12T21:56:03.438Z,1016.1
2017-07-12T21:58:35.206Z,1016.1
2017-07-12T22:01:06.960Z,1016.1
2017-07-12T22:03:38.678Z,1016.1
2017-07-12T22:06:10.438Z,1016.2
2017-07-12T22:08:42.142Z,1016.2
2017-07-12T22:11:13.888Z,1016.2
2017-07-12T22:13:45.642Z,1016.2
2017-07-12T22:16:17.373Z,1016.2
2017-07-12T22:18:49.082Z,1016.3
2017-07-12T22:21:20.843Z,1016.3
2017-07-12T22:23:52.563Z,1016.3
2017-07-12T22:26:24.308Z,1016.3
2017-07-12T22:28:56.104Z,1016.3
2017-07-12T22:31:27.848Z,1016.3
2017-07-12T22:33:59.557Z,1016.3
2017-07-12T22:36:31.342Z,1016.3
2017-07-12T22:39:03.124Z,1016.3
2017-07-12T22:41:34.890Z,1016.3
2017-07-12T22:44:06.623Z,1016.4
2017-07-12T22:46:38.347Z,1016.4
2017-07-12T22:49:10.062Z,1016.4
2017-07-12T22:51:41.819Z,1016.5
2017-07-12T22:54:13.532Z,1016.5
2017-07-12T22:56:45.301Z,1016.5
2017-07-12T22:59:17.041Z,1016.6
2017-07-12T23:01:48.781Z,1016.6
2017-07-12T23:04:20.507Z,1016.6
2017-07-12T23:06:52.293Z,1016.6
2017-07-12T23:09:24.000Z,1016.6
2017-07-12T23:11:55.772Z,1016.7
2017-07-12T23:14:27.498Z,1016.7
2017-07-12T23:16:59.249Z,1016.7
2017-07-12T23:19:30.964Z,1016.7
2017-07-12T23:22:02.701Z,1016.7
2017-07-12T23:24:34.425Z,1016.7
2017-07-12T23:27:06.173Z,1016.7
2017-07-12T23:29:37.888Z,1016.8
2017-07-12T23:32:09.653Z,1016.8
2017-07-12T23:34:41.378Z,1016.7
2017-07-12T23:37:13.128Z,1016.8
2017-07-12T23:39:44.836Z,1016.8
2017-07-12T23:42:16.583Z,1016.8
2017-07-12T23:44:48.294Z,1016.8
2017-07-12T23:47:20.063Z,1016.8
2017-07-12T23:49:51.797Z,1016.8
2017-07-12T23:52:23.523Z,1016.9
2017-07-12T23:54:55.234Z,1016.9
2017-07-12T23:57:26.974Z,1016.9
2017-07-12T23:59:58.695Z,1016.9
